Time;durP1;ratioP1;P1;durP2;ratioP2;P2;SDS_P1;SDS_P2;PMS_P1;PMS_P2;Temp;Humidity;BMP_temperature;BMP_pressure;BME280_temperature;BME280_humidity;BME280_pressure;Samples;Min_cycle;Max_cycle;Signal;HPM_P1;HPM_P2
2022/04/11 00:02:24;;;;;;;10.50;6.82;;;;;;;;;;5054277;28;20036;-70
2022/04/11 00:04:50;;;;;;;12.00;6.80;;;;;;;;;;5054321;28;20037;-70
2022/04/11 00:07:16;;;;;;;10.65;6.60;;;;;;;;;;5053910;28;20029;-70
2022/04/11 00:09:45;;;;;;;10.02;6.30;;;;;;;;;;5054172;28;20041;-69
2022/04/11 00:12:11;;;;;;;8.60;6.00;;;;;;;;;;5054108;28;20495;-71
2022/04/11 00:14:37;;;;;;;9.05;6.63;;;;;;;;;;5054228;28;20071;-70
2022/04/11 00:17:04;;;;;;;11.18;6.35;;;;;;;;;;5054093;28;20052;-70
2022/04/11 00:19:30;;;;;;;10.75;6.38;;;;;;;;;;5053948;28;20033;-70
2022/04/11 00:21:56;;;;;;;11.00;6.33;;;;;;;;;;5054070;28;20037;-70
2022/04/11 00:24:22;;;;;;;9.40;5.97;;;;;;;;;;5053314;28;20132;-70
2022/04/11 00:26:48;;;;;;;11.37;6.37;;;;;;;;;;5053834;28;20045;-70
2022/04/11 00:29:14;;;;;;;13.97;6.50;;;;;;;;;;5053993;28;20029;-70
2022/04/11 00:31:40;;;;;;;12.03;7.00;;;;;;;;;;5053445;28;20474;-68
2022/04/11 00:34:06;;;;;;;10.40;6.30;;;;;;;;;;5053768;28;20107;-71
2022/04/11 00:36:32;;;;;;;10.90;6.30;;;;;;;;;;5053935;28;20071;-69
2022/04/11 00:38:58;;;;;;;9.67;6.57;;;;;;;;;;5053731;28;20037;-69
2022/04/11 00:41:24;;;;;;;9.33;5.80;;;;;;;;;;5053697;28;20040;-69
2022/04/11 00:43:50;;;;;;;9.70;5.87;;;;;;;;;;5053487;28;20481;-70
2022/04/11 00:46:16;;;;;;;8.67;5.77;;;;;;;;;;5053499;28;20045;-70
2022/04/11 00:48:43;;;;;;;10.17;5.83;;;;;;;;;;5053829;28;20033;-71
2022/04/11 00:51:12;;;;;;;11.03;5.87;;;;;;;;;;5053631;28;20044;-71
2022/04/11 00:53:39;;;;;;;8.77;6.27;;;;;;;;;;5053333;28;20067;-70
2022/04/11 00:56:07;;;;;;;6.03;4.43;;;;;;;;;;5053328;28;20566;-70
2022/04/11 00:58:34;;;;;;;8.90;5.10;;;;;;;;;;5051172;28;20147;-70
2022/04/11 01:01:00;;;;;;;7.23;3.20;;;;;;;;;;5049871;28;20052;-70
2022/04/11 01:03:26;;;;;;;5.57;2.77;;;;;;;;;;5050355;28;20043;-69
2022/04/11 01:05:52;;;;;;;4.77;2.60;;;;;;;;;;5052857;28;20119;-70
2022/04/11 01:08:18;;;;;;;3.67;2.23;;;;;;;;;;5053100;28;20367;-70
2022/04/11 01:10:44;;;;;;;5.93;2.60;;;;;;;;;;5053431;28;20420;-69
2022/04/11 01:13:10;;;;;;;5.03;2.93;;;;;;;;;;5052717;28;20524;-70
2022/04/11 01:15:36;;;;;;;5.50;2.57;;;;;;;;;;5052950;28;20037;-69
2022/04/11 01:18:02;;;;;;;5.40;3.07;;;;;;;;;;5053102;28;20457;-69
2022/04/11 01:20:28;;;;;;;5.80;3.57;;;;;;;;;;5052377;28;20474;-70
2022/04/11 01:22:54;;;;;;;6.47;3.57;;;;;;;;;;5052451;28;20029;-69
2022/04/11 01:25:20;;;;;;;6.10;2.80;;;;;;;;;;5052479;28;20047;-70
2022/04/11 01:27:47;;;;;;;3.90;2.60;;;;;;;;;;5052552;28;20366;-70
2022/04/11 01:30:14;;;;;;;7.87;2.30;;;;;;;;;;5052704;28;20036;-69
2022/04/11 01:32:40;;;;;;;4.57;2.33;;;;;;;;;;5052628;28;20029;-69
2022/04/11 01:35:24;;;;;;;4.63;2.10;;;;;;;;;;5051659;28;20549;-70
2022/04/11 01:37:50;;;;;;;4.13;1.90;;;;;;;;;;5052429;28;20386;-68
2022/04/11 01:40:16;;;;;;;4.30;2.10;;;;;;;;;;5052382;28;20033;-69
2022/04/11 01:42:45;;;;;;;3.37;2.00;;;;;;;;;;5051879;28;20082;-68
2022/04/11 01:45:12;;;;;;;3.43;1.97;;;;;;;;;;5052526;28;20152;-70
2022/04/11 01:47:39;;;;;;;3.57;2.00;;;;;;;;;;5052555;28;20087;-69
2022/04/11 01:50:06;;;;;;;4.10;2.30;;;;;;;;;;5052674;28;20041;-70
2022/04/11 01:52:32;;;;;;;3.50;1.90;;;;;;;;;;5052471;28;20041;-71
2022/04/11 01:54:58;;;;;;;5.07;2.20;;;;;;;;;;5052580;28;20036;-69
2022/04/11 01:57:24;;;;;;;5.17;2.50;;;;;;;;;;5052500;28;20052;-70
2022/04/11 01:59:50;;;;;;;4.13;2.20;;;;;;;;;;5052322;28;20045;-70
2022/04/11 02:02:16;;;;;;;5.87;3.27;;;;;;;;;;5052518;28;20045;-71
2022/04/11 02:04:42;;;;;;;6.20;3.50;;;;;;;;;;5052415;28;20040;-70
2022/04/11 02:07:08;;;;;;;7.13;4.17;;;;;;;;;;5052514;28;20087;-70
2022/04/11 02:09:34;;;;;;;6.60;4.00;;;;;;;;;;5052452;28;20498;-69
2022/04/11 02:12:00;;;;;;;6.87;3.67;;;;;;;;;;5052311;28;20115;-69
2022/04/11 02:14:26;;;;;;;5.47;3.50;;;;;;;;;;5052177;28;20075;-69
2022/04/11 02:16:52;;;;;;;5.90;3.50;;;;;;;;;;5052621;28;20079;-70
2022/04/11 02:19:18;;;;;;;10.60;4.23;;;;;;;;;;5052476;28;20030;-69
2022/04/11 02:21:44;;;;;;;7.37;3.83;;;;;;;;;;5052216;28;20029;-70
2022/04/11 02:24:10;;;;;;;7.80;3.67;;;;;;;;;;5052271;28;20029;-70
2022/04/11 02:26:36;;;;;;;8.10;4.07;;;;;;;;;;5051921;28;20077;-69
2022/04/11 02:29:02;;;;;;;7.67;3.50;;;;;;;;;;5052203;28;20083;-69
2022/04/11 02:31:28;;;;;;;6.27;3.77;;;;;;;;;;5052225;28;20108;-69
2022/04/11 02:33:54;;;;;;;7.87;3.90;;;;;;;;;;5052247;28;20040;-69
2022/04/11 02:36:20;;;;;;;5.27;3.27;;;;;;;;;;5052307;28;20037;-69
2022/04/11 02:38:46;;;;;;;10.07;3.10;;;;;;;;;;5052259;28;20436;-69
2022/04/11 02:41:12;;;;;;;7.83;3.50;;;;;;;;;;5052076;28;20040;-71
2022/04/11 02:43:38;;;;;;;5.17;3.33;;;;;;;;;;5051821;28;20037;-70
2022/04/11 02:46:04;;;;;;;6.77;3.43;;;;;;;;;;5051867;28;20095;-69
2022/04/11 02:48:30;;;;;;;6.80;3.50;;;;;;;;;;5055228;28;20029;-70
2022/04/11 02:50:56;;;;;;;7.20;3.53;;;;;;;;;;5055500;28;20401;-69
2022/04/11 02:53:22;;;;;;;6.77;3.37;;;;;;;;;;5055480;28;20025;-70
2022/04/11 02:55:48;;;;;;;10.43;3.50;;;;;;;;;;5055776;28;20041;-70
2022/04/11 02:58:15;;;;;;;5.90;3.40;;;;;;;;;;5055564;28;20385;-70
2022/04/11 03:00:41;;;;;;;5.10;3.33;;;;;;;;;;5055499;28;20413;-70
2022/04/11 03:03:10;;;;;;;4.57;3.10;;;;;;;;;;5055391;28;20029;-69
2022/04/11 03:05:36;;;;;;;4.13;3.03;;;;;;;;;;5055477;28;20087;-70
2022/04/11 03:08:02;;;;;;;4.90;2.80;;;;;;;;;;5055388;28;20033;-70
2022/04/11 03:10:28;;;;;;;4.37;3.00;;;;;;;;;;5055527;28;20060;-68
2022/04/11 03:12:54;;;;;;;5.40;2.90;;;;;;;;;;5055724;28;20029;-69
2022/04/11 03:15:20;;;;;;;6.73;3.17;;;;;;;;;;5055431;28;20496;-70
2022/04/11 03:17:47;;;;;;;5.70;3.03;;;;;;;;;;5055367;28;20037;-70
2022/04/11 03:20:13;;;;;;;4.60;3.03;;;;;;;;;;5055369;28;20040;-70
2022/04/11 03:22:39;;;;;;;6.30;3.53;;;;;;;;;;5054751;28;20033;-69
2022/04/11 03:25:05;;;;;;;9.43;2.63;;;;;;;;;;5055034;28;20056;-69
2022/04/11 03:27:31;;;;;;;3.73;2.50;;;;;;;;;;5055063;28;20037;-70
2022/04/11 03:29:57;;;;;;;4.77;2.37;;;;;;;;;;5055020;28;20061;-69
2022/04/11 03:32:23;;;;;;;5.27;2.47;;;;;;;;;;5054734;28;20033;-70
2022/04/11 03:34:51;;;;;;;4.37;2.13;;;;;;;;;;5054441;28;20043;-69
2022/04/11 03:37:17;;;;;;;4.03;2.10;;;;;;;;;;5054659;28;20106;-69
2022/04/11 03:39:43;;;;;;;5.73;2.50;;;;;;;;;;5055067;28;20041;-70
2022/04/11 03:42:09;;;;;;;3.57;2.10;;;;;;;;;;5055066;28;20037;-70
2022/04/11 03:44:35;;;;;;;5.57;2.10;;;;;;;;;;5054844;28;20037;-69
2022/04/11 03:47:02;;;;;;;2.47;1.90;;;;;;;;;;5054750;28;20076;-69
2022/04/11 03:49:28;;;;;;;3.97;2.00;;;;;;;;;;5054604;28;20033;-69
2022/04/11 03:51:54;;;;;;;3.60;1.70;;;;;;;;;;5054444;28;20040;-69
2022/04/11 03:54:20;;;;;;;3.03;2.07;;;;;;;;;;5054995;28;20386;-70
2022/04/11 03:56:46;;;;;;;2.50;1.57;;;;;;;;;;5054724;28;20063;-70
2022/04/11 03:59:12;;;;;;;4.93;1.70;;;;;;;;;;5053353;28;20045;-70
2022/04/11 04:01:38;;;;;;;3.20;1.97;;;;;;;;;;5054029;28;20064;-69
2022/04/11 04:04:04;;;;;;;3.10;2.03;;;;;;;;;;5054215;28;20036;-70
2022/04/11 04:06:30;;;;;;;3.43;1.43;;;;;;;;;;5054158;28;20037;-69
2022/04/11 04:08:56;;;;;;;5.83;1.93;;;;;;;;;;5054260;28;20021;-69
2022/04/11 04:11:22;;;;;;;4.17;2.53;;;;;;;;;;5054237;28;20041;-70
2022/04/11 04:13:48;;;;;;;4.07;1.70;;;;;;;;;;5054493;28;20033;-69
2022/04/11 04:16:14;;;;;;;4.97;2.00;;;;;;;;;;5054094;28;20083;-70
2022/04/11 04:18:40;;;;;;;2.70;1.50;;;;;;;;;;5054196;28;20041;-69
2022/04/11 04:21:06;;;;;;;3.37;1.90;;;;;;;;;;5054130;28;20090;-70
2022/04/11 04:23:32;;;;;;;2.80;1.40;;;;;;;;;;5053817;28;20535;-69
2022/04/11 04:25:59;;;;;;;3.13;1.43;;;;;;;;;;5053953;28;20052;-69
2022/04/11 04:28:25;;;;;;;9.40;2.60;;;;;;;;;;5054094;28;20525;-69
2022/04/11 04:30:51;;;;;;;7.73;2.77;;;;;;;;;;5053914;28;20512;-70
2022/04/11 04:33:17;;;;;;;5.60;3.13;;;;;;;;;;5053841;28;20044;-69
2022/04/11 04:35:43;;;;;;;5.73;2.73;;;12.80;47.80;;;;;;5053478;28;20041;-70
2022/04/11 04:38:08;;;;;;;6.63;3.20;;;8.10;65.60;;;;;;5053898;28;20040;-70
2022/04/11 04:40:34;;;;;;;6.50;3.03;;;7.90;66.30;;;;;;5053632;28;20040;-68
2022/04/11 04:43:00;;;;;;;5.17;2.70;;;7.70;66.70;;;;;;5053889;28;20440;-70
2022/04/11 04:45:26;;;;;;;5.03;2.83;;;7.70;66.90;;;;;;5053576;28;20563;-69
2022/04/11 04:47:51;;;;;;;10.17;2.70;;;7.60;66.70;;;;;;5053571;28;20520;-70
2022/04/11 04:50:17;;;;;;;6.67;3.13;;;7.60;66.60;;;;;;5053182;28;20128;-70
2022/04/11 04:52:43;;;;;;;6.47;3.27;;;7.60;66.50;;;;;;5053259;28;20040;-70
2022/04/11 04:55:09;;;;;;;8.37;3.60;;;7.50;67.10;;;;;;5053215;28;20041;-69
2022/04/11 04:57:35;;;;;;;7.13;3.83;;;7.40;67.80;;;;;;5053594;28;20064;-69
2022/04/11 05:00:01;;;;;;;12.30;3.33;;;7.50;67.90;;;;;;5053142;28;20048;-70
2022/04/11 05:02:34;;;;;;;9.63;3.60;;;7.40;68.50;;;;;;5052627;28;20048;-69
2022/04/11 05:05:08;;;;;;;8.00;3.87;;;7.50;68.50;;;;;;5052815;28;20556;-70
2022/04/11 05:07:34;;;;;;;7.67;3.63;;;7.40;68.60;;;;;;5053436;28;20094;-70
2022/04/11 05:10:01;;;;;;;6.57;4.03;;;7.50;68.10;;;;;;5052901;28;20040;-69
2022/04/11 05:12:27;;;;;;;6.93;3.70;;;7.50;67.70;;;;;;5053068;28;20036;-69
2022/04/11 05:14:52;;;;;;;7.30;3.83;;;7.50;68.40;;;;;;5052841;28;20037;-69
2022/04/11 05:17:18;;;;;;;7.50;3.37;;;7.50;68.90;;;;;;5052787;28;20124;-69
2022/04/11 05:19:44;;;;;;;12.00;4.00;;;7.50;68.30;;;;;;5052940;28;20370;-69
2022/04/11 05:22:09;;;;;;;8.10;3.67;;;7.50;68.10;;;;;;5053018;28;20033;-69
2022/04/11 05:24:35;;;;;;;14.30;3.83;;;7.60;68.30;;;;;;5053256;28;20036;-69
2022/04/11 05:27:00;;;;;;;10.90;3.67;;;7.60;68.20;;;;;;5052754;28;20048;-70
2022/04/11 05:29:26;;;;;;;4.90;3.10;;;7.60;68.00;;;;;;5052956;28;20033;-69
2022/04/11 05:31:52;;;;;;;10.90;3.73;;;7.60;68.40;;;;;;5052544;28;20082;-70
2022/04/11 05:34:18;;;;;;;13.83;3.43;;;7.60;68.70;;;;;;5052366;28;20029;-69
2022/04/11 05:36:43;;;;;;;5.40;3.50;;;7.70;69.10;;;;;;5052333;28;20037;-69
2022/04/11 05:39:09;;;;;;;8.23;3.63;;;7.70;69.40;;;;;;5052586;28;20389;-70
2022/04/11 05:41:35;;;;;;;10.00;3.90;;;7.80;69.20;;;;;;5052617;28;20041;-69
2022/04/11 05:44:00;;;;;;;6.43;3.67;;;7.80;68.90;;;;;;5052609;28;20076;-69
2022/04/11 05:46:26;;;;;;;12.90;4.10;;;7.80;68.90;;;;;;5052458;28;20048;-69
2022/04/11 05:48:52;;;;;;;8.80;4.20;;;7.90;69.20;;;;;;5051480;28;20044;-69
2022/04/11 05:51:17;;;;;;;9.07;3.80;;;7.90;69.00;;;;;;5052264;28;20501;-69
2022/04/11 05:53:43;;;;;;;8.67;3.40;;;8.00;69.30;;;;;;5052364;28;20394;-70
2022/04/11 05:56:09;;;;;;;6.23;3.43;;;8.00;69.70;;;;;;5052376;28;20480;-69
2022/04/11 05:58:34;;;;;;;5.03;3.30;;;8.10;68.80;;;;;;5052564;28;20041;-69
2022/04/11 06:01:00;;;;;;;7.80;3.10;;;8.20;69.30;;;;;;5052162;28;20049;-69
2022/04/11 06:03:25;;;;;;;8.37;2.67;;;8.20;68.80;;;;;;5052397;28;20393;-70
2022/04/11 06:05:51;;;;;;;6.47;3.37;;;8.30;68.20;;;;;;5052425;28;20566;-69
2022/04/11 06:08:17;;;;;;;12.03;3.50;;;8.40;68.00;;;;;;5052648;28;20524;-70
2022/04/11 06:10:44;;;;;;;7.17;3.00;;;8.40;67.20;;;;;;5052372;28;20044;-70
2022/04/11 06:13:10;;;;;;;6.13;3.27;;;8.50;66.50;;;;;;5052432;28;20034;-69
2022/04/11 06:15:35;;;;;;;11.17;2.97;;;8.50;66.40;;;;;;5052589;28;20044;-70
2022/04/11 06:18:01;;;;;;;8.03;2.97;;;8.60;66.50;;;;;;5052344;28;20025;-70
2022/04/11 06:20:26;;;;;;;8.53;2.90;;;8.70;66.80;;;;;;5052624;28;20029;-69
2022/04/11 06:22:52;;;;;;;5.30;2.80;;;8.80;66.90;;;;;;5054900;28;20437;-71
2022/04/11 06:25:18;;;;;;;11.07;3.03;;;8.80;66.30;;;;;;5055767;28;20033;-72
2022/04/11 06:27:43;;;;;;;4.00;2.50;;;8.90;65.90;;;;;;5056046;28;20041;-69
2022/04/11 06:30:10;;;;;;;9.03;2.73;;;8.90;65.40;;;;;;5055947;28;20033;-70
2022/04/11 06:32:35;;;;;;;5.13;2.53;;;9.00;64.90;;;;;;5055979;28;20393;-72
2022/04/11 06:35:01;;;;;;;9.77;2.67;;;9.00;64.60;;;;;;5055208;28;20029;-70
2022/04/11 06:37:27;;;;;;;5.03;2.30;;;9.10;65.00;;;;;;5055821;28;20485;-69
2022/04/11 06:39:54;;;;;;;6.47;2.50;;;9.20;65.00;;;;;;5055568;28;20453;-71
2022/04/11 06:42:20;;;;;;;5.83;2.50;;;9.20;64.80;;;;;;5056047;28;20066;-70
2022/04/11 06:44:45;;;;;;;4.50;2.47;;;9.30;64.80;;;;;;5055095;28;20123;-71
2022/04/11 06:47:11;;;;;;;4.30;2.40;;;9.30;64.70;;;;;;5055901;28;20044;-70
2022/04/11 06:49:38;;;;;;;8.43;2.27;;;9.40;64.40;;;;;;5055801;28;20025;-72
2022/04/11 06:52:05;;;;;;;4.53;2.03;;;9.50;64.20;;;;;;5055597;28;20070;-72
2022/04/11 06:54:31;;;;;;;5.93;2.30;;;9.50;64.10;;;;;;5055796;28;20029;-70
2022/04/11 06:56:57;;;;;;;3.63;1.90;;;9.60;63.40;;;;;;5054876;28;20033;-69
2022/04/11 06:59:23;;;;;;;3.30;2.03;;;9.70;63.20;;;;;;5054707;28;20132;-71
2022/04/11 07:01:51;;;;;;;3.33;1.83;;;;;;;;;;5055432;28;20037;-69
2022/04/11 07:04:17;;;;;;;7.37;2.20;;;;;;;;;;5055706;28;20116;-69
2022/04/11 07:06:43;;;;;;;3.03;1.80;;;9.80;62.80;;;;;;5055583;28;20099;-69
2022/04/11 07:09:09;;;;;;;4.07;1.90;;;9.90;61.30;;;;;;5055345;28;20394;-69
2022/04/11 07:11:34;;;;;;;5.20;2.00;;;10.00;61.40;;;;;;5055301;28;20099;-68
2022/04/11 07:14:00;;;;;;;3.43;1.70;;;10.00;61.30;;;;;;5055184;28;20481;-68
2022/04/11 07:16:26;;;;;;;4.57;1.63;;;10.10;60.90;;;;;;5055169;28;20047;-69
2022/04/11 07:18:52;;;;;;;3.43;1.70;;;10.20;59.90;;;;;;5054577;28;20112;-70
2022/04/11 07:21:18;;;;;;;4.90;2.03;;;10.30;59.70;;;;;;5055049;28;20033;-69
2022/04/11 07:23:44;;;;;;;3.40;1.60;;;10.30;59.60;;;;;;5055005;28;20040;-68
2022/04/11 07:26:09;;;;;;;5.10;2.00;;;10.40;59.60;;;;;;5054752;28;20037;-68
2022/04/11 07:28:35;;;;;;;5.00;2.03;;;10.40;59.50;;;;;;5054787;28;20116;-68
2022/04/11 07:31:01;;;;;;;4.37;1.60;;;10.50;59.50;;;;;;5055057;28;20075;-70
2022/04/11 07:33:26;;;;;;;8.45;2.20;;;10.60;59.40;;;;;;5054891;28;20036;-69
2022/04/11 07:35:53;;;;;;;4.72;2.25;;;10.70;59.40;;;;;;5054929;28;20083;-68
2022/04/11 07:38:19;;;;;;;4.45;2.03;;;;;;;;;;5055021;28;20901;-68
2022/04/11 07:40:45;;;;;;;6.00;2.30;;;;;;;;;;5054705;28;20029;-72
2022/04/11 07:43:11;;;;;;;4.10;1.80;;;;;;;;;;5054639;28;20037;-72
2022/04/11 07:45:37;;;;;;;3.90;1.80;;;;;;;;;;5054499;28;20448;-74
2022/04/11 07:48:03;;;;;;;4.93;1.92;;;;;;;;;;5054963;28;20535;-72
2022/04/11 07:50:29;;;;;;;5.28;1.65;;;;;;;;;;5054840;28;20044;-74
2022/04/11 07:52:56;;;;;;;3.22;1.55;;;;;;;;;;5054843;28;20037;-71
2022/04/11 07:55:24;;;;;;;3.17;1.50;;;;;;;;;;5054656;28;20406;-72
2022/04/11 07:57:51;;;;;;;2.92;1.13;;;;;;;;;;5054716;28;20084;-71
2022/04/11 08:00:17;;;;;;;3.40;1.35;;;;;;;;;;5054466;28;20101;-72
2022/04/11 08:02:42;;;;;;;51.22;4.07;;;10.70;59.10;;;;;;5054611;28;20473;-68
2022/04/11 08:05:09;;;;;;;3.80;1.13;;;11.60;56.40;;;;;;5054343;28;20204;-67
2022/04/11 08:07:35;;;;;;;2.35;1.33;;;11.60;55.40;;;;;;5054403;28;20124;-68
2022/04/11 08:10:02;;;;;;;11.32;2.83;;;11.70;52.80;;;;;;5054484;28;20029;-67
2022/04/11 08:12:28;;;;;;;11.10;1.85;;;11.70;53.30;;;;;;5054508;28;20039;-67
2022/04/11 08:14:53;;;;;;;2.33;1.10;;;11.80;54.20;;;;;;5054330;28;20037;-68
2022/04/11 08:17:19;;;;;;;2.55;1.20;;;11.90;54.40;;;;;;5053982;28;20087;-67
2022/04/11 08:19:45;;;;;;;1.92;1.02;;;11.90;54.60;;;;;;5053990;28;20033;-68
2022/04/11 08:22:10;;;;;;;3.33;1.95;;;12.00;53.80;;;;;;5054171;28;20108;-68
2022/04/11 08:24:36;;;;;;;3.17;1.10;;;12.00;51.70;;;;;;5053973;28;20056;-69
2022/04/11 08:27:02;;;;;;;2.67;1.00;;;12.00;52.30;;;;;;5054171;28;20036;-68
2022/04/11 08:29:28;;;;;;;5.53;1.23;;;12.10;52.60;;;;;;5054029;28;20381;-69
2022/04/11 08:31:53;;;;;;;3.65;1.35;;;12.20;52.70;;;;;;5053935;28;20188;-68
2022/04/11 08:34:19;;;;;;;1.77;1.00;;;12.20;52.90;;;;;;5054015;28;20074;-69
2022/04/11 08:36:45;;;;;;;2.95;1.65;;;12.30;53.00;;;;;;5053824;28;20110;-68
2022/04/11 08:39:11;;;;;;;2.17;1.10;;;12.40;53.00;;;;;;5054074;28;20026;-69
2022/04/11 08:41:37;;;;;;;3.03;1.42;;;12.50;52.80;;;;;;5053732;28;20029;-69
2022/04/11 08:44:05;;;;;;;3.92;1.20;;;12.60;52.30;;;;;;5053582;28;20525;-68
2022/04/11 08:46:32;;;;;;;2.15;1.00;;;12.60;50.70;;;;;;5053198;28;20131;-68
2022/04/11 08:49:00;;;;;;;2.50;1.20;;;12.70;50.10;;;;;;5053606;28;20055;-69
2022/04/11 08:51:26;;;;;;;1.33;1.00;;;12.70;49.30;;;;;;5053542;28;20041;-68
2022/04/11 08:53:52;;;;;;;2.65;1.20;;;12.80;48.60;;;;;;5053611;28;20028;-68
2022/04/11 08:56:18;;;;;;;1.88;0.95;;;12.80;48.30;;;;;;5053637;28;20119;-68
2022/04/11 08:58:44;;;;;;;3.22;1.25;;;12.90;48.30;;;;;;5053139;28;20104;-68
2022/04/11 09:01:10;;;;;;;3.13;1.40;;;13.00;48.80;;;;;;5053256;28;20045;-68
2022/04/11 09:03:36;;;;;;;3.17;1.10;;;13.10;47.90;;;;;;5053372;28;20082;-68
2022/04/11 09:06:08;;;;;;;2.58;1.20;;;13.10;45.40;;;;;;5053363;28;20489;-68
2022/04/11 09:08:42;;;;;;;2.33;0.95;;;13.20;46.10;;;;;;5052789;28;20470;-70
2022/04/11 09:11:09;;;;;;;2.03;0.98;;;13.20;46.10;;;;;;5053413;28;20090;-68
2022/04/11 09:13:51;;;;;;;3.05;1.30;;;13.30;46.10;;;;;;5053145;28;20040;-68
2022/04/11 09:16:17;;;;;;;;;;;13.30;44.70;;;;;;5053451;28;20033;-69
2022/04/11 09:18:52;;;;;;;3.42;1.00;;;13.40;45.10;;;;;;5052863;28;20352;-68
2022/04/11 09:21:19;;;;;;;2.20;1.30;;;13.40;44.90;;;;;;5053372;28;20067;-69
2022/04/11 09:23:46;;;;;;;6.95;1.05;;;13.50;45.40;;;;;;5053277;28;20079;-70
2022/04/11 09:26:29;;;;;;;2.33;1.00;;;13.60;45.50;;;;;;5053028;28;20045;-68
2022/04/11 09:29:04;;;;;;;1.95;0.98;;;13.70;45.50;;;;;;5052736;28;20535;-68
2022/04/11 09:31:31;;;;;;;2.83;1.30;;;13.80;45.00;;;;;;5052979;28;20417;-69
2022/04/11 09:33:58;;;;;;;3.15;1.10;;;13.90;45.00;;;;;;5052764;28;20522;-70
2022/04/11 09:36:26;;;;;;;4.18;1.83;;;13.90;42.60;;;;;;5052725;28;20071;-69
2022/04/11 09:38:59;;;;;;;2.85;1.20;;;14.00;42.30;;;;;;5051422;28;20466;-69
2022/04/11 09:41:34;;;;;;;4.78;1.80;;;14.00;43.10;;;;;;5052320;28;20033;-69
2022/04/11 09:44:22;;;;;;;2.70;1.30;;;14.10;42.70;;;;;;5052488;28;20052;-68
2022/04/11 09:46:49;;;;;;;2.70;1.17;;;14.10;43.00;;;;;;5052585;28;20052;-68
2022/04/11 09:49:15;;;;;;;4.45;1.15;;;14.20;42.50;;;;;;5051132;28;20064;-68
2022/04/11 09:52:12;;;;;;;1.90;1.10;;;14.30;40.50;;;;;;5052452;28;20151;-67
2022/04/11 09:54:44;;;;;;;5.68;0.80;;;14.30;41.40;;;;;;5052364;28;20583;-69
2022/04/11 09:57:12;;;;;;;2.60;0.70;;;14.40;41.50;;;;;;5054567;28;20033;-69
2022/04/11 09:59:41;;;;;;;0.80;0.50;;;14.50;39.70;;;;;;5056785;28;20798;-68
2022/04/11 10:02:08;;;;;;;1.98;0.73;;;14.60;38.10;;;;;;5056620;28;20481;-69
2022/04/11 10:04:35;;;;;;;1.33;0.50;;;14.60;38.80;;;;;;5056359;28;20037;-68
2022/04/11 10:07:01;;;;;;;5.88;0.77;;;14.70;37.50;;;;;;5056614;28;20489;-68
2022/04/11 10:09:27;;;;;;;2.40;0.50;;;14.90;35.20;;;;;;5056720;28;20037;-67
2022/04/11 10:11:54;;;;;;;2.75;0.60;;;14.90;34.70;;;;;;5056288;28;20091;-69
2022/04/11 10:14:27;;;;;;;1.17;0.50;;;14.90;35.00;;;;;;5056516;28;20037;-69
2022/04/11 10:17:01;;;;;;;;;;;14.90;35.70;;;;;;5056797;28;20040;-68
2022/04/11 10:19:31;;;;;;;1.35;0.50;;;15.00;36.10;;;;;;5056044;28;19912;-68
2022/04/11 10:22:03;;;;;;;1.10;0.50;;;15.10;35.80;;;;;;5056222;28;20090;-68
2022/04/11 10:24:34;;;;;;;1.23;0.52;;;15.10;35.20;;;;;;5055862;28;20079;-69
2022/04/11 10:27:19;;;;;;;2.08;0.90;;;15.30;33.60;;;;;;5055990;28;20101;-68
2022/04/11 10:29:45;;;;;;;4.80;0.60;;;15.30;34.20;;;;;;5055715;28;20056;-68
2022/04/11 10:32:17;;;;;;;1.25;0.60;;;15.40;32.20;;;;;;5056110;28;20090;-69
2022/04/11 10:34:58;;;;;;;1.77;0.80;;;15.40;32.20;;;;;;5056445;28;20029;-68
2022/04/11 10:37:49;;;;;;;1.58;0.63;;;15.50;33.30;;;;;;5056042;28;20044;-68
2022/04/11 10:40:19;;;;;;;1.00;0.60;;;15.60;32.10;;;;;;5055817;28;20029;-68
2022/04/11 10:43:00;;;;;;;1.00;0.50;;;15.60;33.10;;;;;;5055058;28;20064;-68
2022/04/11 10:45:34;;;;;;;1.20;0.70;;;15.60;33.90;;;;;;5054017;28;20052;-68
2022/04/11 10:48:01;;;;;;;1.92;0.68;;;15.70;34.40;;;;;;5053522;28;20044;-69
2022/04/11 10:50:48;;;;;;;1.48;0.60;;;15.80;34.50;;;;;;5051760;28;20121;-68
2022/04/11 10:53:25;;;;;;;2.67;0.73;;;15.90;35.10;;;;;;5051102;28;20125;-68
2022/04/11 10:56:05;;;;;;;1.88;0.63;;;16.00;32.80;;;;;;5051710;28;20537;-68
2022/04/11 10:58:48;;;;;;;4.85;0.80;;;16.10;33.10;;;;;;5054738;28;20033;-68
2022/04/11 11:01:34;;;;;;;0.82;0.60;;;16.10;33.50;;;;;;5055873;28;20055;-67
2022/04/11 11:04:18;;;;;;;1.15;0.50;;;16.20;33.20;;;;;;5055511;28;20501;-68
2022/04/11 11:06:44;;;;;;;3.25;0.68;;;16.20;32.60;;;;;;5055824;28;20477;-67
2022/04/11 11:09:19;;;;;;;2.63;0.75;;;16.30;33.80;;;;;;5054932;28;20064;-68
2022/04/11 11:11:47;;;;;;;0.65;0.50;;;16.40;33.50;;;;;;5055417;28;20029;-68
2022/04/11 11:14:39;;;;;;;1.30;0.50;;;16.40;33.20;;;;;;5055788;28;20440;-67
2022/04/11 11:17:04;;;;;;;2.25;0.70;;;16.50;32.10;;;;;;5055585;28;20037;-68
2022/04/11 11:19:30;;;;;;;1.20;0.73;;;16.50;33.30;;;;;;5055264;28;20051;-68
2022/04/11 11:21:57;;;;;;;1.58;0.80;;;16.60;34.30;;;;;;5055276;28;20057;-67
2022/04/11 11:24:22;;;;;;;1.83;0.70;;;16.70;34.20;;;;;;5054997;28;20040;-69
2022/04/11 11:27:03;;;;;;;1.17;0.60;;;16.80;33.80;;;;;;5055137;28;20131;-70
2022/04/11 11:29:40;;;;;;;1.20;0.40;;;16.90;34.60;;;;;;5055157;28;20033;-68
2022/04/11 11:32:08;;;;;;;1.23;0.60;;;17.00;30.50;;;;;;5055269;28;20037;-68
2022/04/11 11:34:39;;;;;;;2.35;0.70;;;17.00;31.80;;;;;;5055346;28;20041;-70
2022/04/11 11:37:10;;;;;;;2.63;0.60;;;17.00;31.90;;;;;;5055431;28;20033;-68
2022/04/11 11:39:38;;;;;;;1.30;0.50;;;17.00;31.00;;;;;;5055164;28;20091;-67
2022/04/11 11:42:10;;;;;;;4.40;0.75;;;17.00;30.80;;;;;;5055099;28;20306;-68
2022/04/11 11:44:47;;;;;;;2.58;0.68;;;16.90;30.20;;;;;;5054875;28;20039;-69
2022/04/11 11:47:12;;;;;;;0.98;0.50;;;16.80;29.80;;;;;;5055119;28;20140;-70
2022/04/11 11:49:43;;;;;;;1.27;0.60;;;16.70;29.90;;;;;;5055224;28;20525;-72
2022/04/11 11:52:18;;;;;;;1.40;0.70;;;16.60;31.80;;;;;;5054971;28;20116;-69
2022/04/11 11:54:49;;;;;;;2.95;0.52;;;16.60;31.70;;;;;;5054680;28;20037;-71
2022/04/11 11:57:20;;;;;;;2.70;0.63;;;16.60;33.70;;;;;;5054676;28;20044;-71
2022/04/11 11:59:59;;;;;;;1.85;0.40;;;16.60;33.80;;;;;;5054556;28;20056;-74
2022/04/11 12:05:19;;;;;;;1.00;0.32;;;16.60;30.10;;;;;;5054853;28;20102;-71
2022/04/11 12:07:50;;;;;;;1.08;0.40;;;16.60;31.10;;;;;;5055094;28;20119;-73
2022/04/11 12:10:17;;;;;;;4.20;0.50;;;16.60;31.00;;;;;;5054263;28;20036;-73
2022/04/11 12:12:45;;;;;;;0.45;0.38;;;16.60;31.70;;;;;;5054459;28;20057;-69
2022/04/11 12:15:11;;;;;;;0.47;0.30;;;16.50;30.90;;;;;;5054181;28;20128;-70
2022/04/11 12:17:39;;;;;;;1.17;0.47;;;16.50;30.60;;;;;;5054188;28;20033;-69
2022/04/11 12:20:17;;;;;;;1.60;0.52;;;16.50;31.70;;;;;;5053074;28;20057;-69
2022/04/11 12:23:01;;;;;;;1.48;0.50;;;16.50;32.10;;;;;;5054530;28;20029;-69
2022/04/11 12:25:29;;;;;;;1.50;0.30;;;16.50;32.10;;;;;;5053759;28;20052;-70
2022/04/11 12:28:17;;;;;;;1.08;0.30;;;16.50;32.80;;;;;;5054097;28;20477;-71
2022/04/11 12:30:49;;;;;;;1.98;0.52;;;16.60;30.70;;;;;;5053838;28;20029;-71
2022/04/11 12:33:34;;;;;;;0.77;0.30;;;16.60;31.70;;;;;;5054246;28;20029;-69
2022/04/11 12:36:22;;;;;;;2.20;0.43;;;16.60;31.70;;;;;;5051717;28;20033;-69
2022/04/11 12:38:55;;;;;;;1.02;0.40;;;16.70;33.10;;;;;;5051275;28;20094;-67
2022/04/11 12:41:31;;;;;;;1.40;0.50;;;16.90;33.10;;;;;;5051467;28;20033;-72
2022/04/11 12:44:04;;;;;;;4.35;0.55;;;17.10;33.30;;;;;;5053475;28;20037;-68
2022/04/11 12:46:30;;;;;;;1.65;0.47;;;17.30;33.40;;;;;;5053671;28;20507;-70
2022/04/11 12:48:59;;;;;;;1.42;0.55;;;17.40;33.40;;;;;;5053448;28;20029;-68
2022/04/11 12:51:27;;;;;;;2.28;0.45;;;17.50;32.80;;;;;;5053206;28;20543;-69
2022/04/11 12:54:04;;;;;;;1.48;0.50;;;17.70;33.10;;;;;;5051890;28;20049;-71
2022/04/11 12:56:34;;;;;;;1.75;0.50;;;17.80;33.60;;;;;;5050674;28;20037;-70
2022/04/11 12:59:00;;;;;;;0.80;0.43;;;17.90;32.50;;;;;;5052103;28;20112;-69
2022/04/11 13:01:51;;;;;;;2.38;0.60;;;18.00;32.80;;;;;;5053699;28;20148;-70
2022/04/11 13:04:17;;;;;;;3.88;0.40;;;18.10;33.30;;;;;;5053553;28;20033;-71
2022/04/11 13:06:43;;;;;;;1.58;0.45;;;18.10;32.70;;;;;;5053116;28;20052;-71
2022/04/11 13:09:10;;;;;;;1.58;0.40;;;18.20;31.90;;;;;;5053590;28;20410;-70
2022/04/11 13:11:42;;;;;;;1.15;0.40;;;18.20;31.40;;;;;;5053453;28;20029;-70
2022/04/11 13:14:09;;;;;;;0.30;0.30;;;18.20;31.80;;;;;;5052861;28;20029;-71
2022/04/11 13:19:19;;;;;;;1.38;0.40;;;18.20;32.40;;;;;;5050761;28;20048;-71
2022/04/11 13:21:47;;;;;;;2.22;0.47;;;18.20;33.70;;;;;;5050819;28;20449;-70
2022/04/11 13:24:13;;;;;;;2.72;0.50;;;18.30;33.70;;;;;;5050700;28;20029;-70
2022/04/11 13:26:38;;;;;;;1.52;0.40;;;18.40;33.30;;;;;;5051764;28;20049;-69
2022/04/11 13:29:04;;;;;;;0.65;0.35;;;18.50;33.70;;;;;;5052933;28;20388;-70
2022/04/11 13:31:30;;;;;;;1.13;0.55;;;18.50;32.40;;;;;;5052713;28;20561;-71
2022/04/11 13:33:55;;;;;;;1.20;0.47;;;18.50;33.40;;;;;;5052636;28;20033;-70
2022/04/11 13:36:21;;;;;;;1.38;0.40;;;18.60;31.90;;;;;;5052908;28;20036;-70
2022/04/11 13:38:46;;;;;;;0.70;0.30;;;18.60;32.00;;;;;;5052845;28;20119;-71